Time;durP1;ratioP1;P1;durP2;ratioP2;P2;SDS_P1;SDS_P2;PMS_P1;PMS_P2;Temp;Humidity;BMP_temperature;BMP_pressure;BME280_temperature;BME280_humidity;BME280_pressure;Samples;Min_cycle;Max_cycle;Signal;HPM_P1;HPM_P2
2022/08/19 00:00:46;;;;;;;2.53;2.33;;;;;;;20.90;63.92;96133.44;10505536;28;20062;-59
2022/08/19 00:06:05;;;;;;;2.72;2.40;;;;;;;20.89;63.90;96137.28;10513363;28;20055;-58
2022/08/19 00:11:25;;;;;;;2.88;2.67;;;;;;;20.90;63.95;96122.63;10498825;28;20052;-59
2022/08/19 00:16:46;;;;;;;2.53;2.33;;;;;;;20.89;63.90;96121.81;10511511;28;20060;-59
2022/08/19 00:22:08;;;;;;;2.60;2.40;;;;;;;20.89;63.90;96110.19;10514974;28;20052;-59
2022/08/19 00:27:27;;;;;;;2.55;2.35;;;;;;;20.88;63.83;96109.41;10499280;28;20057;-58
2022/08/19 00:32:47;;;;;;;2.97;2.53;;;;;;;20.90;63.96;96103.66;10505431;28;20041;-58
2022/08/19 00:38:06;;;;;;;2.85;2.53;;;;;;;20.89;63.98;96100.16;10494709;28;20493;-59
2022/08/19 00:43:26;;;;;;;2.40;2.20;;;;;;;20.90;64.01;96096.31;10499194;28;20048;-59
2022/08/19 00:48:46;;;;;;;2.22;2.03;;;;;;;20.90;64.06;96090.13;10508194;28;20532;-58
2022/08/19 00:54:05;;;;;;;2.40;2.20;;;;;;;20.90;64.08;96098.25;10515137;28;20036;-59
2022/08/19 00:59:25;;;;;;;2.67;2.47;;;;;;;20.90;64.15;96106.38;10497010;28;20053;-59
2022/08/19 01:04:44;;;;;;;2.55;2.28;;;;;;;20.90;64.12;96134.22;10499635;28;20071;-58
2022/08/19 01:10:07;;;;;;;2.55;2.35;;;;;;;20.90;64.04;96139.63;10509206;28;20510;-58
2022/08/19 01:15:32;;;;;;;2.50;2.30;;;;;;;20.90;64.16;96145.06;10496769;28;20052;-58
2022/08/19 01:20:54;;;;;;;2.40;2.20;;;;;;;20.91;64.22;96137.72;10513354;28;20496;-59
2022/08/19 01:26:16;;;;;;;2.50;2.30;;;;;;;20.89;64.21;96129.94;10507631;28;20110;-58
2022/08/19 01:31:39;;;;;;;2.67;2.47;;;;;;;20.91;64.28;96132.28;10507499;28;20380;-59
2022/08/19 01:36:58;;;;;;;2.65;2.35;;;;;;;20.91;64.31;96153.94;10494990;28;20404;-59
2022/08/19 01:42:18;;;;;;;2.55;2.35;;;;;;;20.90;64.25;96174.06;10506437;28;20036;-59
2022/08/19 01:47:38;;;;;;;2.83;2.50;;;;;;;20.90;64.33;96171.34;10511117;28;20499;-58
2022/08/19 01:52:59;;;;;;;2.80;2.55;;;;;;;20.90;64.40;96179.47;10517140;28;20044;-58
2022/08/19 01:58:25;;;;;;;2.60;2.40;;;;;;;20.90;64.39;96198.41;10516146;28;20074;-59
2022/08/19 02:03:45;;;;;;;2.95;2.55;;;;;;;20.91;64.30;96167.50;10487509;28;20110;-59
2022/08/19 02:09:05;;;;;;;2.80;2.55;;;;;;;20.91;64.31;96175.59;10516694;28;20040;-58
2022/08/19 02:14:25;;;;;;;2.80;2.60;;;;;;;20.90;64.37;96187.59;10503240;28;20045;-59
2022/08/19 02:19:44;;;;;;;2.70;2.50;;;;;;;20.91;64.51;96206.19;10506234;28;20075;-59
2022/08/19 02:25:04;;;;;;;2.90;2.60;;;;;;;20.91;64.47;96199.97;10499871;28;20060;-58
2022/08/19 02:30:24;;;;;;;2.72;2.42;;;;;;;20.91;64.61;96217.03;10505227;28;20056;-56
2022/08/19 02:35:45;;;;;;;3.45;2.50;;;;;;;20.91;64.45;96203.50;10499827;28;20056;-58
2022/08/19 02:41:16;;;;;;;2.90;2.70;;;;;;;20.91;64.48;96203.50;10499397;28;20056;-58
2022/08/19 02:46:36;;;;;;;2.72;2.45;;;;;;;20.91;64.43;96189.97;10512940;28;20045;-59
2022/08/19 02:51:55;;;;;;;3.40;2.70;;;;;;;20.92;64.43;96201.56;10499704;28;20060;-58
2022/08/19 02:57:15;;;;;;;3.05;2.78;;;;;;;20.91;64.55;96211.63;10499096;28;20110;-59
2022/08/19 03:02:34;;;;;;;2.70;2.50;;;;;;;20.90;64.44;96204.63;10500054;28;20064;-59
2022/08/19 03:07:53;;;;;;;2.50;2.30;;;;;;;20.91;64.48;96208.91;10501328;28;20056;-59
2022/08/19 03:13:16;;;;;;;3.10;2.80;;;;;;;20.91;64.44;96200.78;10498991;28;20047;-59
2022/08/19 03:18:35;;;;;;;2.88;2.67;;;;;;;20.91;64.58;96205.38;10523972;28;20044;-58
2022/08/19 03:23:56;;;;;;;2.58;2.38;;;;;;;20.91;64.53;96194.56;10458546;28;1176724;-58
2022/08/19 03:29:17;;;;;;;2.88;2.58;;;;;;;20.91;64.56;96194.56;10502977;28;20101;-59
2022/08/19 03:34:37;;;;;;;2.97;2.70;;;;;;;20.91;64.43;96198.06;10503368;28;20044;-59
2022/08/19 03:39:56;;;;;;;2.60;2.40;;;;;;;20.91;64.42;96203.50;10500227;28;20052;-58
2022/08/19 03:45:16;;;;;;;2.72;2.53;;;;;;;20.91;64.55;96206.19;10501721;28;20525;-59
2022/08/19 03:50:39;;;;;;;2.83;2.63;;;;;;;20.92;64.68;96206.97;10497925;28;20087;-58
2022/08/19 03:55:59;;;;;;;2.85;2.65;;;;;;;20.93;64.56;96197.72;10499103;28;20048;-59
2022/08/19 04:01:22;;;;;;;3.58;2.90;;;;;;;20.92;64.48;96198.84;10502696;28;20048;-59
2022/08/19 04:06:43;;;;;;;3.38;3.08;;;;;;;20.91;64.59;96197.28;10498933;28;20094;-59
2022/08/19 04:12:05;;;;;;;3.05;2.72;;;;;;;20.91;64.62;96208.09;10511980;28;20079;-58
2022/08/19 04:17:25;;;;;;;8.27;7.40;;;;;;;20.86;64.89;96225.41;10504190;28;20060;-59
2022/08/19 04:22:44;;;;;;;8.88;7.88;;;;;;;20.73;65.17;96235.47;10498292;28;20067;-59
2022/08/19 04:28:04;;;;;;;8.80;8.00;;;;;;;20.49;65.59;96238.28;10500010;28;20098;-59
2022/08/19 04:33:24;;;;;;;9.90;8.68;;;;;;;20.37;66.20;96258.03;10494233;28;20051;-59
2022/08/19 04:38:44;;;;;;;9.45;8.48;;;;;;;20.32;66.68;96274.50;10511305;28;20409;-60
2022/08/19 04:44:04;;;;;;;9.65;8.52;;;;;;;20.26;67.92;96292.09;10515665;28;20373;-60
2022/08/19 04:49:23;;;;;;;10.05;9.13;;;;;;;20.21;68.10;96303.94;10510784;28;20063;-55
2022/08/19 04:54:43;;;;;;;8.85;8.00;;;;;;;20.21;68.46;96295.81;10497168;28;20045;-60
2022/08/19 05:00:03;;;;;;;10.02;8.55;;;;;;;20.29;67.92;96288.72;10500009;28;20105;-59
2022/08/19 05:05:22;;;;;;;8.98;7.85;;;;;;;20.38;67.51;96291.28;10500885;28;20052;-58
2022/08/19 05:10:42;;;;;;;9.13;8.32;;;;;;;20.47;67.51;96291.94;10508659;28;20048;-58
2022/08/19 05:16:01;;;;;;;9.07;8.13;;;;;;;20.51;66.98;96280.09;10498226;28;20059;-58
2022/08/19 05:26:59;;;;;;;9.18;8.18;;;;;;;20.61;66.51;96289.66;10500822;28;20124;-58
2022/08/19 05:32:19;;;;;;;9.52;8.30;;;;;;;20.63;66.41;96306.34;10485083;28;20400;-58
2022/08/19 05:37:42;;;;;;;9.13;8.00;;;;;;;20.65;66.14;96325.75;10496372;28;20056;-58
2022/08/19 05:43:05;;;;;;;8.65;7.78;;;;;;;20.67;65.83;96341.66;10493857;28;20048;-56
2022/08/19 05:48:26;;;;;;;9.70;8.70;;;;;;;20.67;65.61;96357.88;10484310;28;20057;-58
2022/08/19 05:53:45;;;;;;;9.00;8.10;;;;;;;20.68;65.47;96371.06;10495342;28;20488;-58
2022/08/19 05:59:08;;;;;;;8.48;7.78;;;;;;;20.70;65.43;96395.88;10496950;28;20052;-58
2022/08/19 06:04:28;;;;;;;9.18;8.30;;;;;;;20.69;65.90;96405.13;10496055;28;20044;-58
2022/08/19 06:09:47;;;;;;;10.52;9.40;;;;;;;20.71;66.15;96408.28;10495643;28;20053;-57
2022/08/19 06:15:13;;;;;;;9.95;9.05;;;;;;;20.71;66.22;96408.28;10504650;28;20044;-59
2022/08/19 06:20:32;;;;;;;11.23;9.88;;;;;;;20.73;66.13;96407.94;10513327;28;20040;-58
2022/08/19 06:25:51;;;;;;;9.95;8.98;;;;;;;20.74;65.70;96409.53;10516330;28;20053;-58
2022/08/19 06:31:13;;;;;;;9.60;8.63;;;;;;;20.74;65.67;96407.59;10528857;28;20059;-58
2022/08/19 06:36:36;;;;;;;8.77;7.90;;;;;;;20.74;65.58;96423.06;10522289;28;20051;-58
2022/08/19 06:41:59;;;;;;;8.80;7.93;;;;;;;20.74;65.44;96434.69;10515739;28;20511;-58
2022/08/19 06:47:22;;;;;;;9.00;8.20;;;;;;;20.76;65.40;96447.88;10491888;28;20056;-58
2022/08/19 06:52:42;;;;;;;8.15;7.40;;;;;;;20.77;65.54;96456.78;10504495;28;20048;-58
2022/08/19 06:58:03;;;;;;;8.80;8.05;;;;;;;20.78;65.43;96455.63;10488996;28;20492;-58
2022/08/19 07:03:22;;;;;;;8.70;7.63;;;;;;;20.79;65.73;96452.59;10515286;28;20055;-59
2022/08/19 07:08:42;;;;;;;8.43;7.72;;;;;;;20.78;65.75;96442.91;10503499;28;20052;-59
2022/08/19 07:14:02;;;;;;;9.60;8.63;;;;;;;20.80;65.70;96429.03;10504914;28;20554;-56
2022/08/19 07:19:22;;;;;;;8.50;7.70;;;;;;;20.80;65.71;96402.75;10493889;28;20052;-59
2022/08/19 07:24:42;;;;;;;8.20;7.50;;;;;;;20.81;65.67;96409.72;10499226;28;20458;-59
2022/08/19 07:30:02;;;;;;;10.38;7.97;;;;;;;20.81;65.59;96390.00;10499219;28;20056;-59
2022/08/19 07:35:23;;;;;;;9.68;8.23;;;;;;;20.81;65.32;96377.25;10499923;28;20055;-59
2022/08/19 07:40:45;;;;;;;9.25;8.45;;;;;;;20.84;65.62;96373.06;10509735;28;20055;-59
2022/08/19 07:46:05;;;;;;;8.93;8.13;;;;;;;20.83;65.73;96345.19;10484858;28;20052;-59
2022/08/19 07:51:25;;;;;;;9.73;8.82;;;;;;;20.83;65.78;96336.28;10499503;28;20064;-59
2022/08/19 07:56:45;;;;;;;9.98;9.07;;;;;;;20.83;65.66;96322.75;10523795;28;20044;-59
2022/08/19 08:02:05;;;;;;;9.85;8.95;;;;;;;20.83;65.71;96284.84;10492723;28;20060;-59
2022/08/19 08:13:05;;;;;;;10.00;9.00;;;;;;;20.85;65.78;96329.41;10499981;28;20045;-59
2022/08/19 08:18:25;;;;;;;10.18;9.25;;;;;;;20.86;65.81;96376.22;10506037;28;20044;-59
2022/08/19 08:23:44;;;;;;;10.43;9.48;;;;;;;20.85;65.85;96399.78;10505692;28;20060;-59
2022/08/19 08:29:04;;;;;;;10.48;9.48;;;;;;;20.85;65.84;96412.53;10506487;28;20056;-60
2022/08/19 08:34:23;;;;;;;11.00;10.00;;;;;;;20.85;65.80;96423.38;10491596;28;20101;-55
2022/08/19 08:39:43;;;;;;;10.27;9.32;;;;;;;20.85;65.78;96423.38;10498518;28;20047;-60
2022/08/19 08:45:12;;;;;;;9.95;9.13;;;;;;;20.86;65.86;96430.38;10497871;28;20048;-59
2022/08/19 08:50:37;;;;;;;11.25;10.20;;;;;;;20.88;65.77;96433.53;10496784;28;20056;-60
2022/08/19 08:55:56;;;;;;;10.95;9.95;;;;;;;20.87;65.86;96432.72;10502255;28;20397;-59
2022/08/19 09:01:16;;;;;;;10.60;9.65;;;;;;;20.87;65.84;96426.53;10501689;28;20094;-59
2022/08/19 09:06:56;;;;;;;10.70;9.80;;;;;;;20.88;66.00;96428.13;10499454;28;20053;-59
2022/08/19 09:12:32;;;;;;;10.43;9.43;;;;;;;20.88;65.79;96425.41;10474462;28;20466;-58
2022/08/19 09:17:51;;;;;;;10.50;9.55;;;;;;;20.88;65.94;96412.66;10494565;28;20072;-59
2022/08/19 09:23:10;;;;;;;10.48;9.65;;;;;;;20.89;65.89;96410.72;10495804;28;20103;-54
2022/08/19 09:28:31;;;;;;;10.98;9.98;;;;;;;20.90;65.80;96415.03;10486226;28;20053;-59
2022/08/19 09:33:51;;;;;;;10.80;9.80;;;;;;;20.89;65.83;96419.63;10495891;28;20102;-60
2022/08/19 09:39:11;;;;;;;10.43;9.52;;;;;;;20.89;65.84;96416.91;10501815;28;20053;-59
2022/08/19 09:44:30;;;;;;;10.68;9.73;;;;;;;20.90;65.99;96423.94;10496489;28;20094;-60
2022/08/19 09:49:50;;;;;;;10.43;9.52;;;;;;;20.92;65.93;96423.59;10498830;28;20055;-59
2022/08/19 09:55:10;;;;;;;10.88;9.93;;;;;;;20.92;65.93;96420.88;10524948;28;20485;-54
2022/08/19 10:00:31;;;;;;;10.75;9.77;;;;;;;20.91;65.86;96435.53;10496716;28;20059;-59
2022/08/19 10:05:51;;;;;;;10.60;9.70;;;;;;;20.90;65.84;96431.28;10526294;28;20488;-60
2022/08/19 10:11:10;;;;;;;10.88;9.77;;;;;;;20.92;65.93;96437.91;10527659;28;20048;-59
2022/08/19 10:16:29;;;;;;;10.45;9.57;;;;;;;20.93;65.87;96444.09;10519314;28;20488;-59
2022/08/19 10:21:49;;;;;;;10.23;9.43;;;;;;;20.93;65.88;96441.41;10503043;28;20067;-60
2022/08/19 10:27:09;;;;;;;11.23;10.18;;;;;;;20.93;65.81;96441.41;10504292;28;20045;-59
2022/08/19 10:32:29;;;;;;;10.88;9.90;;;;;;;20.94;65.97;96440.28;10537652;28;20049;-59
2022/08/19 10:37:48;;;;;;;10.52;9.63;;;;;;;20.95;65.83;96436.44;10510842;28;20057;-56
2022/08/19 10:43:07;;;;;;;10.98;9.98;;;;;;;20.96;65.83;96442.66;10504859;28;20053;-60
2022/08/19 10:48:27;;;;;;;10.68;9.75;;;;;;;20.95;65.89;96444.56;10502212;28;20064;-59
2022/08/19 10:53:46;;;;;;;10.50;9.50;;;;;;;20.96;65.83;96439.94;10506435;28;20048;-59
2022/08/19 10:59:06;;;;;;;10.70;9.80;;;;;;;20.98;66.01;96434.97;10516890;28;20041;-59
2022/08/19 11:04:25;;;;;;;10.75;9.85;;;;;;;20.96;66.02;96429.91;10501595;28;20104;-59
2022/08/19 11:09:46;;;;;;;10.45;9.57;;;;;;;20.97;65.90;96426.03;10508534;28;20067;-60
2022/08/19 11:15:07;;;;;;;9.98;9.07;;;;;;;20.98;66.01;96427.63;10500255;28;20063;-60
2022/08/19 11:20:27;;;;;;;10.38;9.45;;;;;;;20.99;65.83;96425.72;10503246;28;20052;-60
2022/08/19 11:25:46;;;;;;;11.15;9.95;;;;;;;20.99;66.12;96421.06;10504476;28;20496;-59
2022/08/19 11:31:14;;;;;;;9.85;8.95;;;;;;;21.00;66.06;96413.75;10513684;28;20052;-60
2022/08/19 11:36:34;;;;;;;12.57;9.87;;;;;;;21.01;66.13;96415.31;10514165;28;20047;-59
2022/08/19 11:41:54;;;;;;;11.23;10.13;;;;;;;21.01;66.31;96413.41;10489631;28;20454;-59
2022/08/19 11:47:14;;;;;;;12.10;9.85;;;;;;;21.02;66.65;96419.63;10498940;28;20114;-60
2022/08/19 11:52:34;;;;;;;12.32;9.93;;;;;;;21.03;66.67;96407.63;10517771;28;20047;-60
2022/08/19 11:57:54;;;;;;;11.07;9.93;;;;;;;21.04;66.58;96418.13;10510018;28;20036;-59
2022/08/19 12:03:14;;;;;;;10.25;9.25;;;;;;;21.03;66.66;96403.03;10512355;28;20094;-59
2022/08/19 12:08:34;;;;;;;9.82;8.93;;;;;;;21.04;66.77;96409.22;10517795;28;20051;-60
2022/08/19 12:13:54;;;;;;;8.52;7.80;;;;;;;21.04;66.56;96382.16;10497887;28;20106;-60
2022/08/19 12:19:13;;;;;;;8.88;8.07;;;;;;;21.03;66.23;96381.38;10490762;28;20106;-59
2022/08/19 12:24:33;;;;;;;9.48;8.48;;;;;;;21.03;65.86;96381.38;10505270;28;20052;-57
2022/08/19 12:29:53;;;;;;;8.90;7.97;;;;;;;21.04;65.66;96382.16;10511359;28;20040;-60
2022/08/19 12:35:12;;;;;;;8.48;7.65;;;;;;;21.03;65.33;96385.97;10497991;28;20044;-60
2022/08/19 12:40:31;;;;;;;8.75;7.85;;;;;;;21.02;65.03;96374.38;10492633;28;20491;-59
2022/08/19 12:45:51;;;;;;;8.43;7.65;;;;;;;21.02;64.61;96371.66;10508926;28;20048;-60
2022/08/19 12:51:13;;;;;;;11.70;7.90;;;;;;;21.01;64.38;96372.81;10502538;28;20416;-59
2022/08/19 12:56:33;;;;;;;8.50;7.70;;;;;;;21.03;64.09;96375.16;10491957;28;20056;-58
2022/08/19 13:01:52;;;;;;;8.15;7.47;;;;;;;21.01;63.52;96367.38;10496404;28;20063;-59
2022/08/19 13:07:12;;;;;;;8.05;7.38;;;;;;;21.00;63.27;96365.78;10507832;28;20057;-59
2022/08/19 13:12:31;;;;;;;7.68;7.03;;;;;;;21.01;62.83;96353.84;10496879;28;20059;-59
2022/08/19 13:17:53;;;;;;;7.38;6.78;;;;;;;21.02;62.46;96355.41;10497003;28;20067;-60
2022/08/19 13:23:12;;;;;;;7.68;7.00;;;;;;;21.00;62.03;96354.97;10512516;28;20558;-60
2022/08/19 13:34:11;;;;;;;7.60;6.90;;;;;;;21.01;61.33;96370.09;10518407;28;20036;-60
2022/08/19 13:39:32;;;;;;;7.53;6.82;;;;;;;21.01;61.09;96364.69;10524287;28;20044;-60
2022/08/19 13:44:54;;;;;;;7.43;6.82;;;;;;;21.01;60.69;96367.38;10493798;28;20052;-60
2022/08/19 13:50:16;;;;;;;7.32;6.72;;;;;;;21.02;61.23;96351.91;10504081;28;20063;-59
2022/08/19 13:55:37;;;;;;;7.30;6.70;;;;;;;21.03;61.35;96350.78;10494330;28;20057;-59
2022/08/19 14:00:58;;;;;;;7.30;6.60;;;;;;;21.04;61.56;96342.31;10488268;28;20087;-59
2022/08/19 14:06:19;;;;;;;7.45;6.72;;;;;;;21.05;61.61;96343.09;10511047;28;20047;-60
2022/08/19 14:11:39;;;;;;;7.22;6.55;;;;;;;21.06;61.81;96333.84;10504641;28;20056;-60
2022/08/19 14:16:59;;;;;;;7.60;6.90;;;;;;;21.06;62.02;96314.88;10516688;28;20094;-60
2022/08/19 14:22:18;;;;;;;7.55;6.78;;;;;;;21.06;62.22;96318.38;10510347;28;20511;-60
2022/08/19 14:27:39;;;;;;;7.65;6.95;;;;;;;21.08;62.35;96323.44;10516394;28;20044;-60
2022/08/19 14:33:00;;;;;;;8.63;6.47;;;;;;;21.08;62.45;96321.53;10503087;28;20048;-60
2022/08/19 14:38:19;;;;;;;7.82;6.47;;;;;;;21.07;62.71;96319.97;10504349;28;20048;-59
2022/08/19 14:43:39;;;;;;;7.68;6.93;;;;;;;21.09;62.82;96325.81;10502703;28;20056;-60
2022/08/19 14:48:59;;;;;;;8.52;7.18;;;;;;;21.09;62.95;96314.19;10506607;28;20416;-60
2022/08/19 14:54:18;;;;;;;7.82;7.03;;;;;;;21.11;62.96;96320.84;10525272;28;20071;-60
2022/08/19 14:59:38;;;;;;;7.95;7.15;;;;;;;21.12;63.00;96317.00;10505531;28;20056;-60
2022/08/19 15:04:57;;;;;;;8.25;7.45;;;;;;;21.12;63.12;96308.88;10501418;28;20052;-58
2022/08/19 15:10:17;;;;;;;10.35;7.75;;;;;;;21.13;63.48;96310.44;10518304;28;20483;-60
2022/08/19 15:15:38;;;;;;;8.98;7.25;;;;;;;21.16;63.55;96291.94;10505598;28;20079;-60
2022/08/19 15:20:59;;;;;;;10.82;7.95;;;;;;;21.17;63.51;96278.06;10502785;28;20053;-59
2022/08/19 15:26:19;;;;;;;11.35;7.00;;;;;;;21.18;63.68;96276.13;10500637;28;20052;-59
2022/08/19 15:31:39;;;;;;;13.27;8.25;;;;;;;21.19;63.80;96280.38;10499306;28;20189;-60
2022/08/19 15:36:58;;;;;;;14.43;7.90;;;;;;;21.18;63.83;96279.59;10507559;28;20071;-58
2022/08/19 15:42:19;;;;;;;12.15;8.65;;;;;;;21.17;64.00;96293.50;10513488;28;20545;-59
2022/08/19 15:47:39;;;;;;;11.95;8.13;;;;;;;21.17;63.96;96280.75;10487385;28;20057;-58
2022/08/19 15:53:03;;;;;;;11.30;7.90;;;;;;;21.18;64.14;96278.81;10511432;28;20056;-58
2022/08/19 16:09:39;;;;;;;10.30;7.93;;;;;;;21.18;64.30;96249.81;10494795;28;20052;-59
2022/08/19 16:14:58;;;;;;;10.13;7.70;;;;;;;21.18;64.28;96255.22;10496811;28;20052;-58
2022/08/19 16:20:20;;;;;;;9.73;7.43;;;;;;;21.19;64.43;96258.72;10510576;28;20048;-58
2022/08/19 16:25:40;;;;;;;10.30;7.78;;;;;;;21.20;64.45;96277.34;10497996;28;20052;-59
2022/08/19 16:30:59;;;;;;;10.30;7.30;;;;;;;21.22;64.81;96253.41;10498114;28;20055;-58
2022/08/19 16:36:18;;;;;;;18.40;9.30;;;;;;;21.23;65.02;96243.34;10508807;28;20055;-60
2022/08/19 16:41:39;;;;;;;27.35;11.40;;;;;;;21.25;65.26;96251.94;10497557;28;20053;-59
2022/08/19 16:46:59;;;;;;;26.92;10.82;;;;;;;21.26;65.95;96248.06;10497149;28;20123;-58
2022/08/19 16:52:18;;;;;;;18.88;10.43;;;;;;;21.26;66.42;96256.97;10518864;28;20047;-58
2022/08/19 16:57:38;;;;;;;24.48;10.95;;;;;;;21.30;66.83;96255.16;10496987;28;20052;-58
2022/08/19 17:03:09;;;;;;;19.77;10.93;;;;;;;21.34;67.11;96268.78;10497843;28;20047;-57
2022/08/19 17:08:30;;;;;;;24.95;12.00;;;;;;;21.37;67.38;96264.63;10509082;28;20059;-53
2022/08/19 17:13:50;;;;;;;20.33;12.75;;;;;;;21.36;67.18;96263.81;10510684;28;20043;-56
2022/08/19 17:19:09;;;;;;;19.23;13.00;;;;;;;21.36;67.51;96268.44;10502485;28;20059;-59
2022/08/19 17:24:29;;;;;;;19.70;12.98;;;;;;;21.38;67.32;96283.22;10498365;28;20048;-57
2022/08/19 17:29:48;;;;;;;21.48;13.40;;;;;;;21.37;67.49;96267.31;10509936;28;20086;-59
2022/08/19 17:35:08;;;;;;;16.08;13.77;;;;;;;21.39;67.58;96284.03;10499166;28;20044;-58
2022/08/19 17:40:27;;;;;;;14.57;13.07;;;;;;;21.37;67.31;96300.63;10496071;28;20053;-57
2022/08/19 17:45:46;;;;;;;15.27;13.57;;;;;;;21.38;67.16;96313.00;10496691;28;20060;-57
2022/08/19 17:51:17;;;;;;;13.70;12.40;;;;;;;21.40;67.46;96321.59;10513285;28;20044;-59
2022/08/19 17:56:36;;;;;;;12.63;11.38;;;;;;;21.41;67.42;96333.22;10486479;28;20098;-58
2022/08/19 18:01:56;;;;;;;12.50;11.23;;;;;;;21.39;67.22;96325.44;10495662;28;20098;-60
2022/08/19 18:07:15;;;;;;;12.30;10.77;;;;;;;21.37;67.41;96327.72;10514478;28;20040;-59
2022/08/19 18:12:36;;;;;;;14.45;11.25;;;;;;;21.38;67.31;96331.97;10500555;28;20523;-58
2022/08/19 18:17:55;;;;;;;12.75;11.40;;;;;;;21.37;67.12;96352.09;10503283;28;20060;-59
2022/08/19 18:23:15;;;;;;;12.10;10.60;;;;;;;21.36;66.96;96366.78;10507167;28;20060;-60
2022/08/19 18:28:34;;;;;;;12.18;10.43;;;;;;;21.36;66.99;96393.88;10502323;28;20500;-59
2022/08/19 18:33:54;;;;;;;11.73;10.05;;;;;;;21.36;66.86;96376.81;10510675;28;20085;-59
2022/08/19 18:50:30;;;;;;;11.77;10.50;;;;;;;21.38;67.41;96434.94;10496525;28;20064;-58
2022/08/19 18:55:52;;;;;;;10.88;9.77;;;;;;;21.39;67.69;96488.03;10502009;28;20132;-58
2022/08/19 19:08:37;;;;;;;;;;;;;;;21.37;67.97;96490.28;10497582;28;20048;-59
2022/08/19 19:13:58;;;;;;;12.35;8.48;;;;;;;21.37;67.54;96422.56;10501170;28;20291;-56
2022/08/19 19:19:17;;;;;;;10.05;8.15;;;;;;;-146.19;100.00;65364.44;10494098;28;20060;-67
2022/08/19 19:24:39;;;;;;;10.40;7.72;;;;;;;-146.19;100.00;65364.44;10515734;28;20443;-58
2022/08/19 19:29:59;;;;;;;9.68;7.47;;;;;;;-146.19;100.00;65364.44;10503834;28;20051;-57
2022/08/19 19:35:18;;;;;;;11.10;7.68;;;;;;;-146.19;100.00;65364.44;10519369;28;20063;-60
2022/08/19 19:40:37;;;;;;;3.60;3.00;;;;;;;-146.19;100.00;65364.44;10500028;28;20105;-57
2022/08/19 19:45:56;;;;;;;3.38;2.30;;;;;;;-146.19;100.00;65364.44;10498201;28;20053;-62
2022/08/19 19:51:15;;;;;;;5.25;2.72;;;;;;;-146.19;100.00;65364.44;10523301;28;20055;-67
2022/08/19 19:56:35;;;;;;;3.92;3.25;;;;;;;-146.19;100.00;65364.44;10499250;28;20044;-61
2022/08/19 20:01:55;;;;;;;5.25;3.10;;;;;;;21.21;65.26;96405.44;10499013;28;20060;-62
2022/08/19 20:07:14;;;;;;;4.85;3.47;;;;;;;21.09;62.41;96407.06;10511878;28;20057;-67
2022/08/19 20:12:34;;;;;;;8.43;3.60;;;;;;;21.00;61.49;96409.13;10501368;28;20063;-70
2022/08/19 20:17:54;;;;;;;3.65;2.78;;;;;;;-146.19;100.00;65364.44;10513811;28;20238;-59
2022/08/19 20:23:13;;;;;;;4.65;2.03;;;;;;;21.06;64.19;96421.28;10488451;28;20052;-58
2022/08/19 20:28:32;;;;;;;2.58;1.60;;;;;;;21.03;65.32;96442.84;10487466;28;20052;-58
2022/08/19 20:33:52;;;;;;;3.15;1.70;;;;;;;20.97;65.87;96431.47;10499994;28;20052;-57
2022/08/19 20:39:12;;;;;;;2.78;1.58;;;;;;;20.93;66.23;96417.03;10489593;28;20045;-57
2022/08/19 20:44:31;;;;;;;3.05;1.70;;;;;;;20.89;66.56;96422.34;10503858;28;20052;-57
2022/08/19 20:49:50;;;;;;;5.30;1.65;;;;;;;20.89;66.65;96424.25;10497320;28;20106;-57
2022/08/19 20:55:11;;;;;;;2.55;1.80;;;;;;;20.94;66.51;96437.56;10508050;28;20541;-58
2022/08/19 21:00:31;;;;;;;2.67;1.65;;;;;;;21.00;66.53;96457.88;10512660;28;20127;-57
2022/08/19 21:05:51;;;;;;;2.40;1.80;;;;;;;21.04;66.31;96460.69;10507797;28;20044;-58
2022/08/19 21:11:12;;;;;;;4.13;1.73;;;;;;;21.06;66.35;96464.63;10497341;28;20415;-54
2022/08/19 21:16:32;;;;;;;2.00;1.77;;;;;;;21.10;66.41;96465.50;10501134;28;20478;-58
2022/08/19 21:21:52;;;;;;;2.38;1.63;;;;;;;21.10;66.42;96462.81;10515722;28;20550;-56
2022/08/19 21:27:12;;;;;;;1.90;1.60;;;;;;;21.12;66.33;96474.09;10496933;28;20049;-58
2022/08/19 21:32:31;;;;;;;1.92;1.55;;;;;;;21.12;66.45;96482.22;10507650;28;20443;-58
2022/08/19 21:37:50;;;;;;;3.10;2.08;;;;;;;21.12;66.44;96482.22;10502153;28;20053;-58
2022/08/19 21:43:10;;;;;;;3.75;2.05;;;;;;;21.14;66.39;96490.00;10495940;28;20531;-58
2022/08/19 21:48:29;;;;;;;4.05;2.80;;;;;;;21.14;66.63;96481.88;10525693;28;20112;-58
2022/08/19 21:53:49;;;;;;;2.50;2.25;;;;;;;21.15;66.50;96486.19;10506118;28;20427;-57
2022/08/19 21:59:08;;;;;;;2.80;2.60;;;;;;;21.16;66.51;96497.78;10502859;28;20110;-58
2022/08/19 22:04:28;;;;;;;3.33;2.42;;;;;;;21.16;66.63;96519.47;10509388;28;20132;-58
2022/08/19 22:09:48;;;;;;;3.42;3.10;;;;;;;21.16;66.75;96511.34;10517297;28;20056;-58
2022/08/19 22:15:11;;;;;;;4.65;3.45;;;;;;;21.16;66.80;96511.34;10503596;28;20056;-58
2022/08/19 22:20:31;;;;;;;3.78;3.22;;;;;;;21.15;66.81;96513.25;10504287;28;20132;-58
2022/08/19 22:25:50;;;;;;;4.20;3.55;;;;;;;21.16;66.71;96508.63;10500452;28;20404;-58
2022/08/19 22:31:10;;;;;;;3.92;3.13;;;;;;;21.16;66.84;96511.34;10505663;28;20400;-58
2022/08/19 22:36:33;;;;;;;3.92;3.50;;;;;;;21.16;66.86;96489.66;10502112;28;20511;-58
2022/08/19 22:41:53;;;;;;;4.13;3.63;;;;;;;21.16;66.96;96495.09;10502041;28;20083;-57
2022/08/19 22:47:13;;;;;;;4.53;4.13;;;;;;;21.14;66.83;96515.16;10513251;28;20052;-58
2022/08/19 22:52:33;;;;;;;5.07;4.57;;;;;;;21.15;67.03;96507.84;10489848;28;20048;-57
2022/08/19 22:57:53;;;;;;;5.20;4.70;;;;;;;21.17;66.83;96499.34;10500543;28;20053;-57
2022/08/19 23:03:12;;;;;;;6.65;5.30;;;;;;;21.15;67.03;96497.00;10507024;28;20414;-57
2022/08/19 23:08:32;;;;;;;5.65;5.13;;;;;;;21.14;66.83;96485.38;10501679;28;20056;-57
2022/08/19 23:13:51;;;;;;;6.55;5.72;;;;;;;21.16;66.91;96497.78;10488382;28;20059;-58
2022/08/19 23:19:11;;;;;;;5.93;5.43;;;;;;;21.16;67.01;96489.66;10500272;28;20056;-57
2022/08/19 23:24:31;;;;;;;7.60;6.63;;;;;;;21.16;67.09;96481.53;10488878;28;20053;-57
2022/08/19 23:35:34;;;;;;;7.47;6.82;;;;;;;21.16;67.09;96479.63;10494819;28;20056;-57
2022/08/19 23:40:56;;;;;;;8.07;7.28;;;;;;;21.14;66.98;96469.13;10500607;28;20052;-58
2022/08/19 23:46:17;;;;;;;9.38;8.23;;;;;;;21.15;67.10;96475.34;10489428;28;20052;-58
2022/08/19 23:51:37;;;;;;;8.43;7.72;;;;;;;21.16;67.06;96470.72;10513112;28;20466;-57
2022/08/19 23:56:57;;;;;;;9.77;8.88;;;;;;;21.16;67.27;96470.72;10502366;28;20048;-58
